LJMBLJPZ

Guest
Details From LJMB - MARIBOR
To LJPZ - PORTOROZ
Flight Number -
Tags generated
Created
Modified
Stats Distance 106 nm / 195 km
Max Altitude 5,100 ft / 1,554 m
Waypoints 3
Social Downloads 0
Likes 0
Share VATSIM

Download

Looking for another format? Having issues loading an existing format? Contact us
Advertisement - Login to hide

Notes

Basic altitude profile: - Ascent Rate: 700ft/min - Ascent Speed: 110kts - Cruise Altitude: 9000ft - Cruise Speed: 150kts - Descent Rate: 1000ft/min - Descent Speed: 100kts

Route

LJMB VALLU LJPZ

ID Type Via Altitude Latitude Longitude Leg Dist Tot Dist Heading (true) Name
O LJMB APT - 0 ft / 0 m 46.48062˚ 15.68602˚ - 0 nm - MARIBOR
VALLU FIX - 5,100 ft / 1,554 m 46.29159˚ 15.33632˚ 18 nm 18 nm 232° / 232° -
O LJPZ APT - 0 ft / 0 m 45.47244˚ 13.61568˚ 87 nm 105 nm 236° / 235° PORTOROZ

Altitude Profile

Advertisement - Login to hide

LJMB

Details ICAO LJMB (MBX)
Name MARIBOR
Region Slovenia
Timezone Europe/Ljubljana (UTC+1.0)
Stats Elevation 876 ft / 267 m (AMSL)
Location 46.480625° 15.686020°
Runways 2
Magnetic Variation 3.935° E

METAR

LJMB 121430Z 22010KT 190V250 9999 SCT037 BKN085 12/05 Q1009

Decode

TAF

TAF LJMB 121400Z 1215/1315 20012G25KT 9999 SCT030 BKN055 TEMPO 1215/1221 -RA BKN030 BECMG 1215/1218 19005KT BECMG 1221/1224 02005KT 3500 RASN BR BKN020 OVC030 BECMG 1300/1303 2500 SN BKN010 OVC020 TEMPO 1300/1306 0800 VV005 BECMG 1306/1308 3500 BR BECMG 1310/1312 19007KT 9999 NSW SCT015 BKN060

Decode

Departure Runways

ID Width Length Bearing (true) Bearing (mag) Surface Threshold Offset Overrun Length
15 148 ft / 45 m 8,160 ft / 2,487 m 146.19° 142.25° Asphalt 0 ft / 0 m 0 ft / 0 m
15L 197 ft / 60 m 3,941 ft / 1,201 m 146.13° 142.19° Grass 0 ft / 0 m 0 ft / 0 m
33 148 ft / 45 m 8,160 ft / 2,487 m 326.20° 322.26° Asphalt 0 ft / 0 m 0 ft / 0 m
33R 197 ft / 60 m 3,941 ft / 1,201 m 326.14° 322.20° Grass 0 ft / 0 m 0 ft / 0 m

LJPZ

Details ICAO LJPZ (POW)
Name PORTOROZ
Region Slovenia
Timezone Europe/Ljubljana (UTC+1.0)
Stats Elevation 7 ft / 2 m (AMSL)
Location 45.472445° 13.615681°
Runways 1
Magnetic Variation 3.443° E

METAR

LJPZ 121430Z 12003KT 9999 FEW035 BKN100 12/10 Q1011

Decode

TAF

Not found

Destination Runways

ID Width Length Bearing (true) Bearing (mag) Surface Threshold Offset Overrun Length
15 98 ft / 30 m 3,939 ft / 1,201 m 151.28° 147.84° Asphalt 0 ft / 0 m 0 ft / 0 m
33 98 ft / 30 m 3,939 ft / 1,201 m 331.29° 327.85° Asphalt 751 ft / 229 m 0 ft / 0 m

Popular Alternatives